Time;durP1;ratioP1;P1;durP2;ratioP2;P2;SDS_P1;SDS_P2;PMS_P1;PMS_P2;Temp;Humidity;BMP_temperature;BMP_pressure;BME280_temperature;BME280_humidity;BME280_pressure;Samples;Min_cycle;Max_cycle;Signal;HPM_P1;HPM_P2
2021/01/07 00:01:53;;;;;;;15.03;7.80;;;1.90;99.90;;;;;;5067229;28;20209;-57
2021/01/07 00:04:19;;;;;;;14.57;7.73;;;1.80;99.90;;;;;;5069578;28;20222;-61
2021/01/07 00:06:45;;;;;;;12.50;7.20;;;1.90;99.90;;;;;;5067447;28;20213;-60
2021/01/07 00:09:12;;;;;;;13.27;7.83;;;1.80;99.90;;;;;;5065021;28;20210;-62
2021/01/07 00:11:40;;;;;;;11.87;6.73;;;1.80;99.90;;;;;;5064931;28;20218;-57
2021/01/07 00:14:07;;;;;;;11.57;6.10;;;1.80;99.90;;;;;;5066492;28;20276;-61
2021/01/07 00:16:34;;;;;;;12.47;6.97;;;1.90;99.90;;;;;;5067512;28;20211;-61
2021/01/07 00:19:02;;;;;;;12.23;6.63;;;1.80;99.90;;;;;;5065738;28;20676;-61
2021/01/07 00:21:28;;;;;;;10.93;6.33;;;1.90;99.90;;;;;;5067042;28;20200;-61
2021/01/07 00:23:54;;;;;;;11.60;6.33;;;1.90;99.90;;;;;;5067344;28;20226;-61
2021/01/07 00:26:20;;;;;;;10.27;5.80;;;1.80;99.90;;;;;;5064295;28;20211;-61
2021/01/07 00:28:48;;;;;;;11.70;6.37;;;1.90;99.90;;;;;;5065510;28;20672;-54
2021/01/07 00:31:14;;;;;;;12.13;6.47;;;1.80;99.90;;;;;;5064385;28;20230;-61
2021/01/07 00:33:41;;;;;;;11.93;6.13;;;1.80;99.90;;;;;;5063288;28;20738;-57
2021/01/07 00:36:08;;;;;;;12.13;6.37;;;1.80;99.90;;;;;;5067661;28;20207;-60
2021/01/07 00:38:34;;;;;;;12.73;6.70;;;1.80;99.90;;;;;;5069493;28;21025;-59
2021/01/07 00:41:01;;;;;;;11.17;6.00;;;1.80;99.90;;;;;;5065159;28;20628;-61
2021/01/07 00:43:27;;;;;;;11.37;6.80;;;1.90;99.90;;;;;;5069043;28;20226;-61
2021/01/07 00:45:54;;;;;;;10.93;6.40;;;1.80;99.90;;;;;;5062023;28;20229;-60
2021/01/07 00:48:20;;;;;;;12.27;6.90;;;1.80;99.90;;;;;;5063114;28;20210;-61
2021/01/07 00:50:48;;;;;;;10.87;6.23;;;1.80;99.90;;;;;;5067902;28;20220;-59
2021/01/07 00:53:15;;;;;;;10.00;6.00;;;1.80;99.90;;;;;;5067116;28;20236;-62
2021/01/07 00:55:41;;;;;;;8.77;5.70;;;1.80;99.90;;;;;;5064814;28;20206;-61
2021/01/07 00:58:08;;;;;;;11.20;6.20;;;1.80;99.90;;;;;;5067602;28;20212;-63
2021/01/07 01:00:35;;;;;;;11.30;6.23;;;1.90;99.90;;;;;;5064643;28;20584;-62
2021/01/07 01:03:01;;;;;;;11.47;6.20;;;1.80;99.90;;;;;;5065780;28;20230;-59
2021/01/07 01:05:27;;;;;;;11.00;5.97;;;1.80;99.90;;;;;;5067120;28;20233;-62
2021/01/07 01:07:54;;;;;;;10.67;5.83;;;1.90;99.90;;;;;;5064194;28;20206;-62
2021/01/07 01:10:21;;;;;;;11.67;5.77;;;1.90;99.90;;;;;;5065573;28;20287;-57
2021/01/07 01:12:47;;;;;;;11.33;6.10;;;1.80;99.90;;;;;;5068879;28;20256;-59
2021/01/07 01:15:14;;;;;;;9.83;5.47;;;1.80;99.90;;;;;;5055173;28;20673;-61
2021/01/07 01:17:42;;;;;;;10.97;5.80;;;1.80;99.90;;;;;;5064568;28;20206;-62
2021/01/07 01:20:11;;;;;;;8.93;5.10;;;1.80;99.90;;;;;;5067945;28;20213;-62
2021/01/07 01:22:38;;;;;;;9.53;5.40;;;1.90;99.90;;;;;;5068162;28;20214;-59
2021/01/07 01:25:08;;;;;;;10.23;5.73;;;1.80;99.90;;;;;;5064275;28;20206;-62
2021/01/07 01:27:35;;;;;;;10.63;5.77;;;1.80;99.90;;;;;;5066803;28;20210;-62
2021/01/07 01:30:03;;;;;;;7.93;4.97;;;1.80;99.90;;;;;;5066663;28;20213;-60
2021/01/07 01:32:29;;;;;;;9.47;5.37;;;1.80;99.90;;;;;;5069500;28;20691;-62
2021/01/07 01:34:56;;;;;;;8.90;5.07;;;1.80;99.90;;;;;;5065405;28;20203;-61
2021/01/07 01:37:22;;;;;;;10.00;5.03;;;1.80;99.90;;;;;;5064253;28;20328;-61
2021/01/07 01:39:48;;;;;;;9.43;5.23;;;1.80;99.90;;;;;;5065182;28;20202;-62
2021/01/07 01:42:14;;;;;;;10.27;5.43;;;1.80;99.90;;;;;;5069019;28;20193;-58
2021/01/07 01:44:42;;;;;;;9.37;5.30;;;1.90;99.90;;;;;;5067112;28;20206;-62
2021/01/07 01:47:08;;;;;;;7.87;4.87;;;1.80;99.90;;;;;;5059707;28;20206;-60
2021/01/07 01:49:34;;;;;;;9.63;5.17;;;1.80;99.90;;;;;;5067595;28;20727;-60
2021/01/07 01:52:01;;;;;;;10.00;5.70;;;1.80;99.90;;;;;;5070750;28;20222;-62
2021/01/07 01:54:27;;;;;;;10.00;5.53;;;1.80;99.90;;;;;;5068740;28;20246;-61
2021/01/07 01:56:57;;;;;;;11.13;5.40;;;1.80;99.90;;;;;;5056854;28;20214;-62
2021/01/07 01:59:29;;;;;;;7.77;4.63;;;1.70;99.90;;;;;;5064365;28;20217;-60
2021/01/07 02:02:04;;;;;;;8.23;4.93;;;1.80;99.90;;;;;;5064217;28;20881;-61
2021/01/07 02:04:30;;;;;;;6.73;4.20;;;1.70;99.90;;;;;;5057819;28;20688;-61
2021/01/07 02:06:58;;;;;;;7.70;4.10;;;1.80;99.90;;;;;;5066781;28;20571;-62
2021/01/07 02:09:25;;;;;;;8.50;4.27;;;1.70;99.90;;;;;;5066425;28;20224;-62
2021/01/07 02:11:52;;;;;;;6.60;3.73;;;1.70;99.90;;;;;;5065033;28;20225;-59
2021/01/07 02:14:18;;;;;;;6.30;3.93;;;1.70;99.90;;;;;;5058352;28;20635;-60
2021/01/07 02:16:44;;;;;;;6.73;3.90;;;1.80;99.90;;;;;;5063046;28;20202;-58
2021/01/07 02:19:11;;;;;;;6.80;3.90;;;1.80;99.90;;;;;;5064711;28;20210;-61
2021/01/07 02:21:39;;;;;;;7.20;4.13;;;1.80;99.90;;;;;;5064533;28;20198;-62
2021/01/07 02:24:05;;;;;;;7.70;4.23;;;1.80;99.90;;;;;;5065814;28;20643;-60
2021/01/07 02:26:32;;;;;;;5.77;4.00;;;1.80;99.90;;;;;;5075563;28;20208;-62
2021/01/07 02:28:58;;;;;;;5.37;3.40;;;1.80;99.90;;;;;;5078514;28;20205;-62
2021/01/07 02:31:24;;;;;;;5.03;3.30;;;1.80;99.90;;;;;;5070710;28;20745;-60
2021/01/07 02:33:51;;;;;;;6.87;4.00;;;1.80;99.90;;;;;;5085550;28;20262;-62
2021/01/07 02:36:17;;;;;;;8.20;4.43;;;1.80;99.90;;;;;;5084709;28;20593;-61
2021/01/07 02:38:44;;;;;;;9.00;5.13;;;1.80;99.90;;;;;;5083284;28;20205;-61
2021/01/07 02:41:11;;;;;;;7.47;4.20;;;1.70;99.90;;;;;;5080808;28;20254;-62
2021/01/07 02:43:38;;;;;;;8.37;4.67;;;1.80;99.90;;;;;;5082258;28;20287;-62
2021/01/07 02:46:04;;;;;;;9.17;5.07;;;1.80;99.90;;;;;;5068880;28;20687;-63
2021/01/07 02:48:30;;;;;;;9.07;5.37;;;1.80;99.90;;;;;;5069154;28;20256;-62
2021/01/07 02:50:57;;;;;;;9.77;5.00;;;1.80;99.90;;;;;;5080672;22;20231;-58
2021/01/07 02:53:23;;;;;;;9.13;5.13;;;1.80;99.90;;;;;;5027205;28;20685;-56
2021/01/07 02:55:50;;;;;;;8.80;5.30;;;1.80;99.90;;;;;;5030719;28;20233;-57
2021/01/07 02:58:17;;;;;;;12.10;5.47;;;1.80;99.90;;;;;;5034549;28;20199;-60
2021/01/07 03:00:43;;;;;;;10.03;5.47;;;1.80;99.90;;;;;;5029746;28;20224;-58
2021/01/07 03:03:09;;;;;;;9.07;4.93;;;1.80;99.90;;;;;;5029951;28;20204;-58
2021/01/07 03:05:36;;;;;;;11.70;5.57;;;1.80;99.90;;;;;;5028243;28;20215;-59
2021/01/07 03:08:02;;;;;;;9.67;5.20;;;1.80;99.90;;;;;;5027944;28;20254;-58
2021/01/07 03:10:29;;;;;;;9.03;4.93;;;1.80;99.90;;;;;;5031253;28;20228;-58
2021/01/07 03:12:56;;;;;;;9.13;5.23;;;1.80;99.90;;;;;;5031480;28;20203;-57
2021/01/07 03:15:22;;;;;;;9.17;4.77;;;1.80;99.90;;;;;;5032431;28;20207;-58
2021/01/07 03:17:48;;;;;;;9.77;5.53;;;1.80;99.90;;;;;;5031376;28;20586;-59
2021/01/07 03:20:16;;;;;;;10.73;5.43;;;1.80;99.90;;;;;;5031738;28;20350;-59
2021/01/07 03:22:43;;;;;;;9.40;5.00;;;1.80;99.90;;;;;;5025666;28;20659;-54
2021/01/07 03:25:11;;;;;;;9.77;5.13;;;1.70;99.90;;;;;;5020141;28;20582;-58
2021/01/07 03:27:38;;;;;;;11.40;5.90;;;1.70;99.90;;;;;;5023315;28;20204;-58
2021/01/07 03:30:07;;;;;;;10.00;5.13;;;1.80;99.90;;;;;;5023001;28;20278;-58
2021/01/07 03:32:34;;;;;;;11.07;5.10;;;1.80;99.90;;;;;;5026682;28;20242;-57
2021/01/07 03:35:01;;;;;;;10.73;4.83;;;1.80;99.90;;;;;;5022912;28;20676;-58
2021/01/07 03:37:27;;;;;;;10.00;5.50;;;1.70;99.90;;;;;;5023874;28;20230;-59
2021/01/07 03:39:53;;;;;;;9.40;4.83;;;1.80;99.90;;;;;;5021568;28;20223;-57
2021/01/07 03:42:20;;;;;;;10.93;5.13;;;1.70;99.90;;;;;;5021677;28;20230;-58
2021/01/07 03:44:46;;;;;;;11.50;5.67;;;1.70;99.90;;;;;;5021664;28;20207;-56
2021/01/07 03:47:13;;;;;;;10.83;5.03;;;1.80;99.90;;;;;;5024479;28;20571;-55
2021/01/07 03:49:40;;;;;;;11.73;5.57;;;1.70;99.90;;;;;;5022265;28;20219;-60
2021/01/07 03:52:06;;;;;;;12.10;5.63;;;1.70;99.90;;;;;;5022456;28;20702;-59
2021/01/07 03:54:32;;;;;;;10.37;5.60;;;1.70;99.90;;;;;;5026146;28;20215;-57
2021/01/07 03:56:59;;;;;;;11.37;5.23;;;1.70;99.90;;;;;;5021950;28;20211;-58
2021/01/07 03:59:25;;;;;;;11.47;5.40;;;1.70;99.90;;;;;;5023480;28;20200;-58
2021/01/07 04:01:51;;;;;;;11.53;5.80;;;1.70;99.90;;;;;;5020129;28;20204;-60
2021/01/07 04:04:19;;;;;;;12.77;5.73;;;1.70;99.90;;;;;;5020833;28;20749;-59
2021/01/07 04:06:45;;;;;;;10.10;4.97;;;1.70;99.90;;;;;;5021504;28;20195;-59
2021/01/07 04:09:11;;;;;;;9.43;5.03;;;1.70;99.90;;;;;;5023029;28;20212;-58
2021/01/07 04:11:37;;;;;;;11.93;5.70;;;1.70;99.90;;;;;;5021297;28;20216;-56
2021/01/07 04:14:04;;;;;;;12.37;6.10;;;1.70;99.90;;;;;;5025271;28;20200;-53
2021/01/07 04:16:30;;;;;;;12.03;6.00;;;1.60;99.90;;;;;;5022753;28;20655;-58
2021/01/07 04:18:57;;;;;;;12.23;5.33;;;1.70;99.90;;;;;;5024805;28;20202;-59
2021/01/07 04:21:25;;;;;;;12.90;6.13;;;1.60;99.90;;;;;;5022687;28;20863;-55
2021/01/07 04:23:51;;;;;;;11.83;5.63;;;1.60;99.90;;;;;;5020705;28;20200;-58
2021/01/07 04:26:17;;;;;;;11.53;5.57;;;1.60;99.90;;;;;;5023958;28;20200;-56
2021/01/07 04:28:44;;;;;;;11.43;5.87;;;1.60;99.90;;;;;;5024146;28;20212;-55
2021/01/07 04:31:10;;;;;;;11.77;5.77;;;1.60;99.90;;;;;;5026314;28;20220;-59
2021/01/07 04:33:36;;;;;;;13.43;5.83;;;1.60;99.90;;;;;;5025254;28;20208;-60
2021/01/07 04:36:04;;;;;;;13.20;6.03;;;1.50;99.90;;;;;;5027606;28;20216;-57
2021/01/07 04:38:32;;;;;;;11.47;5.67;;;1.60;99.90;;;;;;5029517;28;20295;-59
2021/01/07 04:40:58;;;;;;;11.07;5.60;;;1.60;99.90;;;;;;5031288;28;20230;-60
2021/01/07 04:43:25;;;;;;;12.43;6.47;;;1.60;99.90;;;;;;5032012;28;20214;-57
2021/01/07 04:45:51;;;;;;;12.10;6.30;;;1.60;99.90;;;;;;5031695;28;20200;-58
2021/01/07 04:48:18;;;;;;;11.80;5.60;;;1.50;99.90;;;;;;5032240;28;20199;-58
2021/01/07 04:50:44;;;;;;;11.20;5.83;;;1.60;99.90;;;;;;5031146;28;20231;-57
2021/01/07 04:53:11;;;;;;;11.17;5.60;;;1.70;99.90;;;;;;5025925;28;20204;-60
2021/01/07 04:55:38;;;;;;;13.53;6.07;;;1.60;99.90;;;;;;5025516;28;20795;-61
2021/01/07 04:58:04;;;;;;;12.00;5.90;;;1.60;99.90;;;;;;5028434;28;20200;-58
2021/01/07 05:00:33;;;;;;;10.40;5.53;;;1.60;99.90;;;;;;5030174;28;20223;-58
2021/01/07 05:03:01;;;;;;;10.97;6.23;;;1.60;99.90;;;;;;5030937;28;20203;-59
2021/01/07 05:05:27;;;;;;;11.40;5.87;;;1.60;99.90;;;;;;5030556;28;20262;-59
2021/01/07 05:07:54;;;;;;;10.27;5.80;;;1.60;99.90;;;;;;5030494;28;20203;-57
2021/01/07 05:10:20;;;;;;;13.60;6.70;;;1.60;99.90;;;;;;5029451;28;20224;-56
2021/01/07 05:12:48;;;;;;;12.80;7.33;;;1.60;99.90;;;;;;5023439;28;20231;-55
2021/01/07 05:15:15;;;;;;;12.17;6.20;;;1.60;99.90;;;;;;5022852;28;20238;-59
2021/01/07 05:17:41;;;;;;;11.23;5.80;;;1.60;99.90;;;;;;5029863;28;20207;-56
2021/01/07 05:20:12;;;;;;;13.13;5.90;;;1.60;99.90;;;;;;5028121;28;20219;-57
2021/01/07 05:22:40;;;;;;;11.27;6.00;;;1.60;99.90;;;;;;5029666;28;20195;-60
2021/01/07 05:25:10;;;;;;;9.90;5.33;;;1.60;99.90;;;;;;5024596;28;20206;-58
2021/01/07 05:27:38;;;;;;;10.60;5.47;;;1.50;99.90;;;;;;5031058;28;20688;-59
2021/01/07 05:30:08;;;;;;;10.10;5.80;;;1.60;99.90;;;;;;5031719;28;20219;-56
2021/01/07 05:32:36;;;;;;;11.77;6.43;;;1.60;99.90;;;;;;5031415;28;20584;-57
2021/01/07 05:35:05;;;;;;;10.97;5.77;;;1.60;99.90;;;;;;5031685;28;20200;-58
2021/01/07 05:37:34;;;;;;;10.43;5.20;;;1.60;99.90;;;;;;5031314;28;20207;-58
2021/01/07 05:40:01;;;;;;;7.97;4.60;;;1.60;99.90;;;;;;5031594;28;20219;-59
2021/01/07 05:42:35;;;;;;;8.83;4.70;;;1.70;99.90;;;;;;5031489;28;20902;-59
2021/01/07 05:45:06;;;;;;;9.00;4.70;;;1.60;99.90;;;;;;5031220;28;20209;-59
2021/01/07 05:47:38;;;;;;;9.47;4.90;;;1.70;99.90;;;;;;5031415;28;20214;-55
2021/01/07 05:50:07;;;;;;;9.23;4.90;;;1.70;99.90;;;;;;5027500;28;20595;-56
2021/01/07 05:52:33;;;;;;;9.83;5.60;;;1.70;99.90;;;;;;5021467;28;20272;-59
2021/01/07 05:55:00;;;;;;;8.80;5.30;;;1.70;99.90;;;;;;5027006;28;20216;-58
2021/01/07 05:57:28;;;;;;;10.43;4.63;;;1.70;99.90;;;;;;5031213;28;20208;-59
2021/01/07 05:59:57;;;;;;;10.50;5.33;;;1.60;99.90;;;;;;5031081;28;20272;-59
2021/01/07 06:02:24;;;;;;;9.90;6.00;;;1.60;99.90;;;;;;5031757;28;20195;-59
2021/01/07 06:04:52;;;;;;;9.97;5.40;;;1.60;99.90;;;;;;5030965;28;20210;-57
2021/01/07 06:07:19;;;;;;;8.73;4.77;;;1.60;99.90;;;;;;5031497;28;20570;-59
2021/01/07 06:09:47;;;;;;;9.00;5.33;;;1.60;99.90;;;;;;5031043;28;20223;-59
2021/01/07 06:12:14;;;;;;;9.77;5.57;;;1.60;99.90;;;;;;5031574;28;20223;-57
2021/01/07 06:14:42;;;;;;;8.10;4.80;;;1.60;99.90;;;;;;5032545;28;20211;-57
2021/01/07 06:17:09;;;;;;;9.13;5.20;;;1.60;99.90;;;;;;5032451;28;20207;-58
2021/01/07 06:19:40;;;;;;;8.40;4.80;;;1.60;99.90;;;;;;5031420;28;20227;-55
2021/01/07 06:22:11;;;;;;;10.40;5.30;;;1.60;99.90;;;;;;5028627;28;20208;-59
2021/01/07 06:24:38;;;;;;;9.53;5.43;;;1.60;99.90;;;;;;5030232;28;20655;-58
2021/01/07 06:27:26;;;;;;;8.53;4.60;;;1.60;99.90;;;;;;5032374;28;20208;-59
2021/01/07 06:30:34;;;;;;;9.80;5.20;;;1.60;99.90;;;;;;5034822;28;20219;-57
2021/01/07 06:33:07;;;;;;;10.63;5.27;;;1.60;99.90;;;;;;5021500;28;20206;-58
2021/01/07 06:35:40;;;;;;;9.93;5.43;;;1.60;99.90;;;;;;5028767;28;20298;-59
2021/01/07 06:38:06;;;;;;;9.87;4.87;;;1.50;99.90;;;;;;5021612;28;20230;-54
2021/01/07 06:40:40;;;;;;;9.23;5.37;;;1.60;99.90;;;;;;5035509;28;20230;-57
2021/01/07 06:43:17;;;;;;;7.77;4.80;;;1.60;99.90;;;;;;5035051;28;20214;-58
2021/01/07 06:45:53;;;;;;;10.00;4.83;;;1.60;99.90;;;;;;5035150;28;20662;-58
2021/01/07 06:48:29;;;;;;;8.77;5.23;;;1.50;99.90;;;;;;5022915;28;20229;-58
2021/01/07 06:50:58;;;;;;;10.40;5.20;;;1.50;99.90;;;;;;5031284;28;20227;-57
2021/01/07 06:53:25;;;;;;;10.17;5.87;;;1.50;99.90;;;;;;5030336;28;20210;-59
2021/01/07 06:56:19;;;;;;;8.43;4.60;;;1.50;99.90;;;;;;5033552;28;20209;-58
2021/01/07 06:58:46;;;;;;;8.50;4.90;;;1.60;99.90;;;;;;5029676;28;20199;-59
2021/01/07 07:01:17;;;;;;;9.73;5.40;;;1.50;99.90;;;;;;5034205;28;20710;-59
2021/01/07 07:03:51;;;;;;;11.20;5.83;;;1.60;99.90;;;;;;5033604;28;20663;-60
2021/01/07 07:06:21;;;;;;;9.87;5.23;;;1.50;99.90;;;;;;5034149;28;20653;-59
2021/01/07 07:08:48;;;;;;;7.90;5.03;;;1.50;99.90;;;;;;5034456;28;20662;-58
2021/01/07 07:11:30;;;;;;;8.93;5.10;;;1.50;99.90;;;;;;5034429;28;20223;-58
2021/01/07 07:13:59;;;;;;;9.87;5.23;;;1.50;99.90;;;;;;5034712;28;20208;-57
2021/01/07 07:16:31;;;;;;;9.10;5.20;;;1.50;99.90;;;;;;5034391;28;20204;-59
2021/01/07 07:18:57;;;;;;;8.97;5.10;;;1.50;99.90;;;;;;5034341;28;20199;-59
2021/01/07 07:21:25;;;;;;;10.33;6.10;;;1.60;99.90;;;;;;5033911;28;20226;-59
2021/01/07 07:23:52;;;;;;;10.80;6.13;;;1.60;99.90;;;;;;5028627;28;20702;-59
2021/01/07 07:26:35;;;;;;;9.57;5.07;;;1.60;99.90;;;;;;5022018;28;20291;-59
2021/01/07 07:29:04;;;;;;;9.03;5.17;;;1.60;99.90;;;;;;5033429;28;20239;-61
2021/01/07 07:31:38;;;;;;;8.37;5.23;;;1.70;99.90;;;;;;5033339;28;20603;-60
2021/01/07 07:34:04;;;;;;;7.60;4.70;;;1.70;99.90;;;;;;5032965;28;20202;-60
2021/01/07 07:36:33;;;;;;;9.33;5.50;;;1.70;99.90;;;;;;5034474;28;20210;-56
2021/01/07 07:39:00;;;;;;;11.27;5.47;;;1.70;99.90;;;;;;5032572;28;20290;-60
2021/01/07 07:41:27;;;;;;;11.87;5.70;;;1.70;99.90;;;;;;5034123;28;20660;-58
2021/01/07 07:43:55;;;;;;;9.93;5.80;;;1.70;99.90;;;;;;5033403;28;20200;-59
2021/01/07 07:46:25;;;;;;;8.97;5.30;;;1.80;99.90;;;;;;5034325;28;20212;-56
2021/01/07 07:48:58;;;;;;;9.57;5.77;;;1.80;99.90;;;;;;5030556;28;20203;-56
2021/01/07 07:51:24;;;;;;;14.00;7.00;;;1.80;99.90;;;;;;5028778;28;20254;-55
2021/01/07 07:54:03;;;;;;;11.60;5.83;;;1.80;99.90;;;;;;5023693;28;20295;-59
2021/01/07 07:56:29;;;;;;;10.93;5.57;;;1.80;99.90;;;;;;5031277;28;20204;-58
2021/01/07 07:59:00;;;;;;;9.80;5.67;;;1.80;99.90;;;;;;5033989;28;20204;-59
2021/01/07 08:01:40;;;;;;;10.43;5.73;;;1.80;99.90;;;;;;5033767;28;20220;-59
2021/01/07 08:04:15;;;;;;;10.63;5.87;;;1.90;99.90;;;;;;5033657;28;20619;-57
2021/01/07 08:06:42;;;;;;;11.27;6.40;;;1.90;99.90;;;;;;5033084;28;20217;-58
2021/01/07 08:09:10;;;;;;;11.87;6.23;;;1.80;99.90;;;;;;5031508;28;20285;-59
2021/01/07 08:11:45;;;;;;;12.03;6.17;;;1.80;99.90;;;;;;5029446;28;20223;-59
2021/01/07 08:14:14;;;;;;;14.10;7.03;;;1.80;99.90;;;;;;5028819;28;20814;-56
2021/01/07 08:16:41;;;;;;;13.60;7.00;;;1.80;99.90;;;;;;5032617;28;20204;-58
2021/01/07 08:19:22;;;;;;;12.67;6.50;;;1.90;99.90;;;;;;5032542;28;20203;-56
2021/01/07 08:21:50;;;;;;;12.90;6.83;;;1.90;99.90;;;;;;5032843;28;20211;-58
2021/01/07 08:24:19;;;;;;;11.70;6.27;;;1.90;99.90;;;;;;5031177;28;20200;-58
2021/01/07 08:26:57;;;;;;;11.60;6.37;;;1.90;99.90;;;;;;5027613;28;20230;-59
2021/01/07 08:29:26;;;;;;;12.80;6.90;;;1.90;99.90;;;;;;5028674;28;20571;-56
2021/01/07 08:31:54;;;;;;;13.37;7.20;;;1.90;99.90;;;;;;5032445;28;20346;-58
2021/01/07 08:34:21;;;;;;;11.80;6.23;;;1.90;99.90;;;;;;5032100;28;20253;-55
2021/01/07 08:36:47;;;;;;;14.50;6.40;;;1.90;99.90;;;;;;5032234;28;20202;-60
2021/01/07 08:39:15;;;;;;;11.83;6.50;;;1.90;99.90;;;;;;5032328;28;20208;-61
2021/01/07 08:41:45;;;;;;;14.60;7.00;;;2.00;99.90;;;;;;5032667;28;20207;-60
2021/01/07 08:44:12;;;;;;;12.07;6.67;;;2.00;99.90;;;;;;5031544;28;20204;-57
2021/01/07 08:46:39;;;;;;;12.20;6.90;;;2.00;99.90;;;;;;5031855;28;20278;-58
2021/01/07 08:49:07;;;;;;;12.97;6.93;;;2.00;99.90;;;;;;5031555;28;20211;-57
2021/01/07 08:51:41;;;;;;;12.63;6.40;;;2.10;99.90;;;;;;5031442;28;20242;-59
2021/01/07 08:54:12;;;;;;;11.67;6.03;;;2.10;99.90;;;;;;5032047;28;20234;-57
2021/01/07 08:56:40;;;;;;;15.33;7.07;;;2.10;99.90;;;;;;5031454;28;20211;-58
2021/01/07 08:59:25;;;;;;;12.83;7.10;;;2.10;99.90;;;;;;5032873;28;20207;-55
2021/01/07 09:01:53;;;;;;;16.87;7.03;;;2.20;99.90;;;;;;5031090;28;20286;-57
2021/01/07 09:04:31;;;;;;;13.77;6.57;;;2.20;99.90;;;;;;5027669;28;20204;-55
2021/01/07 09:07:00;;;;;;;15.67;7.40;;;2.20;99.90;;;;;;5031045;28;20349;-54
2021/01/07 09:09:28;;;;;;;11.43;5.77;;;2.20;99.90;;;;;;5024985;28;20666;-56
2021/01/07 09:12:11;;;;;;;13.47;7.10;;;2.20;99.90;;;;;;5028865;28;20657;-60
2021/01/07 09:14:52;;;;;;;11.87;6.50;;;2.20;99.90;;;;;;5027408;28;20688;-57
2021/01/07 09:17:20;;;;;;;11.67;6.10;;;2.20;99.90;;;;;;5031851;28;20200;-57
2021/01/07 09:19:47;;;;;;;10.50;5.87;;;2.30;99.90;;;;;;5031900;28;20260;-59
2021/01/07 09:22:26;;;;;;;10.40;5.80;;;2.30;99.90;;;;;;5030852;28;20204;-59
2021/01/07 09:24:53;;;;;;;10.13;5.97;;;2.30;99.90;;;;;;5031654;28;20207;-59
2021/01/07 09:27:20;;;;;;;12.93;6.73;;;2.30;99.90;;;;;;5030956;28;20207;-58
2021/01/07 09:29:47;;;;;;;10.00;6.03;;;2.20;99.90;;;;;;5030547;28;20302;-55
2021/01/07 09:32:15;;;;;;;12.77;6.73;;;2.20;99.90;;;;;;5030197;28;20211;-57
2021/01/07 09:34:42;;;;;;;12.73;6.03;;;2.20;99.90;;;;;;5030835;28;20196;-54
2021/01/07 09:37:13;;;;;;;12.50;6.73;;;2.20;99.90;;;;;;5029792;28;20204;-54
2021/01/07 09:39:40;;;;;;;12.60;6.43;;;2.30;99.90;;;;;;5030776;28;20598;-56
2021/01/07 09:42:07;;;;;;;11.90;6.87;;;2.30;99.90;;;;;;5030126;28;20203;-56
2021/01/07 09:44:34;;;;;;;12.87;6.30;;;2.30;99.90;;;;;;5030716;28;20666;-57
2021/01/07 09:47:02;;;;;;;11.10;6.27;;;2.40;99.90;;;;;;5030510;28;20208;-57
2021/01/07 09:49:29;;;;;;;10.47;5.83;;;2.40;99.90;;;;;;5029978;28;20294;-56
2021/01/07 09:51:57;;;;;;;9.20;5.70;;;2.40;99.90;;;;;;5030964;28;20220;-57
2021/01/07 09:54:23;;;;;;;9.43;5.57;;;2.40;99.90;;;;;;5029962;28;20569;-54
2021/01/07 09:56:53;;;;;;;10.27;5.87;;;2.50;99.90;;;;;;5030325;28;20210;-57
2021/01/07 09:59:20;;;;;;;12.07;5.80;;;2.60;99.90;;;;;;5030405;28;20234;-58
2021/01/07 10:01:47;;;;;;;8.53;5.03;;;2.50;99.90;;;;;;5028411;28;20694;-53
2021/01/07 10:04:14;;;;;;;8.53;5.60;;;2.60;99.90;;;;;;5030701;28;20678;-56
2021/01/07 10:06:42;;;;;;;9.80;5.57;;;2.60;99.90;;;;;;5030546;28;20291;-55
2021/01/07 10:09:08;;;;;;;8.40;5.13;;;2.60;99.90;;;;;;5031101;28;20200;-58
2021/01/07 10:11:34;;;;;;;7.90;4.80;;;2.60;99.90;;;;;;5030404;28;20228;-53
2021/01/07 10:14:01;;;;;;;10.10;5.50;;;2.60;99.90;;;;;;5031171;28;20203;-57
2021/01/07 10:16:27;;;;;;;7.60;4.87;;;2.60;99.90;;;;;;5031037;28;20207;-53
2021/01/07 10:18:54;;;;;;;8.07;4.70;;;2.60;99.90;;;;;;5030843;28;20203;-56
2021/01/07 10:21:23;;;;;;;11.27;5.60;;;2.60;99.90;;;;;;5030911;28;20756;-56
2021/01/07 10:23:51;;;;;;;8.87;4.70;;;2.50;99.90;;;;;;5030250;28;20200;-57
2021/01/07 10:26:19;;;;;;;8.30;4.70;;;2.50;99.90;;;;;;5027586;28;20604;-53
2021/01/07 10:28:47;;;;;;;8.57;5.20;;;2.60;99.90;;;;;;5030398;28;20204;-58
2021/01/07 10:31:14;;;;;;;8.73;5.27;;;2.70;99.90;;;;;;5030397;28;20224;-57
2021/01/07 10:33:43;;;;;;;8.53;5.33;;;2.80;99.90;;;;;;5030045;28;20207;-55
2021/01/07 10:36:09;;;;;;;8.63;5.33;;;2.90;99.90;;;;;;5029691;28;20362;-49
2021/01/07 10:38:37;;;;;;;9.60;5.70;;;2.90;99.90;;;;;;5030675;28;20203;-58
2021/01/07 10:41:06;;;;;;;9.53;5.23;;;2.90;99.90;;;;;;5029359;28;20231;-55
2021/01/07 10:43:33;;;;;;;8.13;4.77;;;2.90;99.90;;;;;;5030265;28;20214;-53
2021/01/07 10:46:00;;;;;;;9.47;4.90;;;2.90;99.90;;;;;;5029427;28;20203;-54
2021/01/07 10:48:27;;;;;;;9.10;5.47;;;2.90;99.90;;;;;;5030144;28;20208;-53
2021/01/07 10:50:54;;;;;;;8.70;5.50;;;2.80;99.90;;;;;;5029138;28;20238;-52
2021/01/07 10:53:47;;;;;;;9.30;5.20;;;2.70;99.90;;;;;;5029600;28;20214;-54
2021/01/07 10:56:24;;;;;;;9.27;5.63;;;2.70;99.90;;;;;;5029302;28;20212;-57
2021/01/07 10:59:07;;;;;;;8.53;5.47;;;2.70;99.90;;;;;;5025677;28;20200;-57
2021/01/07 11:01:52;;;;;;;8.97;5.50;;;2.70;99.90;;;;;;5028917;28;20713;-55
2021/01/07 11:04:52;;;;;;;9.13;5.20;;;2.70;99.90;;;;;;5023681;28;20895;-53
2021/01/07 11:07:29;;;;;;;11.20;5.90;;;2.60;99.90;;;;;;5028096;28;20556;-56
2021/01/07 11:10:03;;;;;;;10.97;5.73;;;2.70;99.90;;;;;;5028820;28;20230;-53
2021/01/07 11:12:39;;;;;;;7.20;4.80;;;2.50;99.90;;;;;;5024764;28;20694;-53
2021/01/07 11:15:11;;;;;;;7.43;4.83;;;2.60;99.90;;;;;;5032648;28;20207;-57
2021/01/07 11:17:46;;;;;;;8.43;4.43;;;2.70;99.90;;;;;;5033046;28;20277;-56
2021/01/07 11:20:13;;;;;;;8.33;4.40;;;2.70;99.90;;;;;;5032282;28;20232;-58
2021/01/07 11:22:41;;;;;;;6.97;4.37;;;2.70;99.90;;;;;;5029625;28;20681;-58
2021/01/07 11:25:08;;;;;;;7.93;4.37;;;2.80;99.90;;;;;;5032332;28;20208;-57
2021/01/07 11:27:36;;;;;;;6.70;4.30;;;2.70;99.90;;;;;;5032658;28;20622;-53
2021/01/07 11:30:05;;;;;;;6.17;4.10;;;2.80;99.90;;;;;;5032801;28;20227;-56
2021/01/07 11:32:32;;;;;;;6.70;4.07;;;2.90;99.90;;;;;;5032861;28;20215;-56
2021/01/07 11:35:00;;;;;;;6.70;3.83;;;2.90;99.90;;;;;;5032895;28;20210;-54
2021/01/07 11:37:44;;;;;;;5.83;3.83;;;2.90;99.90;;;;;;5032768;28;20203;-56
2021/01/07 11:40:16;;;;;;;8.20;4.27;;;3.00;99.90;;;;;;5032615;28;20242;-55
2021/01/07 11:43:09;;;;;;;8.97;5.57;;;3.00;99.90;;;;;;5032607;28;20576;-54
2021/01/07 11:45:37;;;;;;;6.83;4.00;;;2.90;99.90;;;;;;5028851;28;20207;-53
2021/01/07 11:48:05;;;;;;;5.97;3.87;;;2.90;99.90;;;;;;5032692;28;20513;-56
2021/01/07 11:50:36;;;;;;;7.87;4.70;;;2.90;99.90;;;;;;5032927;28;20270;-55
2021/01/07 11:53:03;;;;;;;7.73;4.57;;;2.90;99.90;;;;;;5032237;28;20220;-57
2021/01/07 11:55:30;;;;;;;7.37;4.30;;;3.00;99.90;;;;;;5033212;28;20207;-56
2021/01/07 11:57:58;;;;;;;8.93;5.07;;;3.00;99.90;;;;;;5031912;28;20498;-52
2021/01/07 12:00:25;;;;;;;6.90;4.47;;;3.10;99.90;;;;;;5032871;28;20273;-51
2021/01/07 12:02:52;;;;;;;7.13;4.47;;;3.00;99.90;;;;;;5032093;28;20196;-52
2021/01/07 12:05:20;;;;;;;9.13;4.77;;;3.00;99.90;;;;;;5028380;28;20211;-56
2021/01/07 12:07:59;;;;;;;8.33;4.77;;;3.10;99.90;;;;;;5032963;28;20199;-55
2021/01/07 12:10:29;;;;;;;8.63;4.73;;;3.10;99.90;;;;;;5032865;28;20243;-55
2021/01/07 12:13:05;;;;;;;9.47;5.00;;;3.10;99.90;;;;;;5032160;28;20653;-57
2021/01/07 12:15:34;;;;;;;10.00;5.40;;;3.10;99.90;;;;;;5031503;28;20673;-57
2021/01/07 12:18:02;;;;;;;10.33;6.17;;;3.10;99.90;;;;;;5031975;28;20200;-56
2021/01/07 12:20:30;;;;;;;10.10;5.80;;;3.10;99.90;;;;;;5031286;28;20736;-58
2021/01/07 12:22:58;;;;;;;10.40;5.50;;;3.10;99.90;;;;;;5032118;28;20204;-56
2021/01/07 12:25:25;;;;;;;10.23;6.13;;;3.10;99.90;;;;;;5031124;28;20730;-59
2021/01/07 12:27:51;;;;;;;10.37;6.53;;;3.20;99.90;;;;;;5031840;28;20203;-58
2021/01/07 12:30:20;;;;;;;9.17;6.03;;;3.10;99.90;;;;;;5031885;28;20262;-57
2021/01/07 12:33:03;;;;;;;12.33;6.63;;;3.20;99.90;;;;;;5031292;28;20273;-51
2021/01/07 12:35:35;;;;;;;11.10;6.47;;;3.10;99.90;;;;;;5025598;28;20210;-55
2021/01/07 12:38:12;;;;;;;11.17;6.67;;;3.00;99.90;;;;;;5030600;28;20214;-59
2021/01/07 12:40:45;;;;;;;14.43;8.07;;;3.10;99.90;;;;;;5031278;28;20223;-58
2021/01/07 12:43:15;;;;;;;11.97;7.37;;;3.10;99.90;;;;;;5029272;28;20233;-55
2021/01/07 12:45:46;;;;;;;11.07;6.70;;;3.10;99.90;;;;;;5031038;28;20204;-59
2021/01/07 12:48:14;;;;;;;11.70;6.80;;;3.10;99.90;;;;;;5031771;28;20623;-57
2021/01/07 12:50:40;;;;;;;11.50;7.03;;;3.10;99.90;;;;;;5031370;28;20525;-58
2021/01/07 12:53:07;;;;;;;12.67;6.70;;;3.00;99.90;;;;;;5030065;28;20230;-59
2021/01/07 12:55:33;;;;;;;13.33;7.80;;;3.00;99.90;;;;;;5026173;28;20208;-60
2021/01/07 12:58:10;;;;;;;12.07;7.03;;;3.10;99.90;;;;;;5025372;28;20210;-59
2021/01/07 13:00:46;;;;;;;11.40;6.80;;;2.90;99.90;;;;;;5028903;28;20223;-60